CDT,Max TemperatureF,Mean TemperatureF,Min TemperatureF,Max Dew PointF,MeanDew PointF,Min DewpointF,Max Humidity, Mean Humidity, Min Humidity, Max Sea Level PressureIn, Mean Sea Level PressureIn, Min Sea Level PressureIn, Max VisibilityMiles, Mean VisibilityMiles, Min VisibilityMiles, Max Wind SpeedMPH, Mean Wind SpeedMPH, Max Gust SpeedMPH,PrecipitationIn, CloudCover, Events, WindDirDegrees
2012-10-1,66,58,50,48,43,37,72,55,43,29.94,29.89,29.82,10,10,7,17,6,23,0.00,0,,317
2012-10-2,69,52,35,46,38,34,93,59,31,29.97,29.92,29.85,10,9,2,8,3,,0.00,0,,162
2012-10-3,75,56,37,46,41,36,93,60,29,29.91,29.88,29.83,10,9,1,15,2,18,0.00,0,,157
2012-10-4,60,50,39,45,35,28,76,62,42,30.16,30.00,29.78,10,10,7,28,13,38,0.00,5,,259
2012-10-5,46,40,33,30,27,25,75,62,46,30.16,30.13,30.10,10,10,10,24,15,31,0.00,4,,285
2012-10-6,42,38,30,30,25,19,87,63,42,30.27,30.21,30.14,10,10,4,16,10,23,0.00,8,,317
2012-10-7,51,38,24,25,21,18,86,55,26,30.22,30.08,29.89,10,10,2,14,4,21,0.00,0,,222
2012-10-8,64,50,37,39,31,23,66,52,30,29.88,29.73,29.59,10,10,5,16,9,25,0.00,3,,212
2012-10-9,48,42,35,43,33,25,93,66,46,29.98,29.82,29.73,10,10,5,23,7,34,0.03,6,Rain,274
2012-10-10,51,40,28,27,25,23,86,58,35,30.10,30.01,29.85,10,10,7,14,7,21,0.00,2,,254
2012-10-11,51,38,26,34,25,14,81,50,29,30.38,30.10,29.80,10,10,7,20,10,26,0.00,2,,313
2012-10-12,51,35,19,25,19,16,100,57,24,30.43,30.31,30.04,10,9,4,14,4,18,0.00,1,,154
2012-10-13,55,50,44,54,47,25,100,90,43,30.03,29.79,29.67,10,6,1,18,8,26,0.04,8,Rain-Thunderstorm,166
2012-10-14,55,50,44,48,40,30,100,77,38,29.88,29.77,29.70,10,9,5,20,10,25,0.00,5,,337
2012-10-15,60,46,33,39,36,30,93,64,39,29.96,29.88,29.75,10,10,5,9,5,16,0.00,1,,224
2012-10-16,62,52,41,52,46,39,100,76,54,29.74,29.53,29.37,10,8,1,14,6,18,0.08,1,Rain-Thunderstorm,168
2012-10-17,60,50,39,52,44,39,100,82,54,29.37,29.26,29.16,10,8,0,21,6,29,0.00,6,Fog-Rain,239
2012-10-18,46,42,39,41,40,37,100,89,81,29.38,29.26,29.18,10,8,3,10,5,,0.00,7,,244
2012-10-19,48,40,32,46,42,32,100,94,71,29.73,29.58,29.38,10,7,2,9,3,,0.09,6,Rain,352
2012-10-20,51,42,32,45,40,32,100,92,71,29.83,29.79,29.73,10,6,0,8,2,,0.00,5,Fog,194
2012-10-21,69,51,33,54,44,34,100,78,46,29.89,29.81,29.76,10,8,2,17,6,23,0.00,0,,141
2012-10-22,62,52,42,52,47,43,100,79,59,29.93,29.89,29.86,10,10,7,20,6,23,0.00,6,Thunderstorm,52
2012-10-23,64,58,53,59,56,52,100,89,77,29.85,29.76,29.68,10,6,2,15,8,17,0.07,8,Rain-Thunderstorm,131
2012-10-24,57,52,48,55,53,46,100,95,88,29.84,29.79,29.73,10,5,1,14,5,22,0.12,7,Rain,347
2012-10-25,46,40,33,46,35,27,100,89,70,30.16,29.87,29.67,10,8,1,23,15,32,0.47,8,Rain-Thunderstorm,314
2012-10-26,37,34,30,27,25,23,86,70,56,30.36,30.30,30.16,10,10,10,18,11,28,0.00,5,,274
2012-10-27,41,32,24,27,23,19,100,72,42,30.37,30.33,30.29,10,10,10,8,2,,0.00,1,,251
2012-10-28,44,32,21,27,24,19,100,72,43,30.35,30.31,30.27,10,10,7,12,2,,0.00,2,,173
2012-10-29,44,32,21,30,26,19,100,76,53,30.32,30.28,30.24,10,10,10,8,2,,0.00,3,,121
2012-10-30,48,34,21,30,24,18,100,67,40,30.24,30.14,30.06,10,10,7,13,3,18,0.00,0,,7
2012-10-31,48,34,21,30,21,16,80,60,29,30.06,30.00,29.92,10,10,10,12,5,,0.00,0,,306